createdAt,value
2017-11-25T00:00:26.438Z,7.70
2017-11-25T00:02:52.690Z,7.70
2017-11-25T00:05:18.822Z,7.70
2017-11-25T00:07:44.983Z,7.70
2017-11-25T00:10:11.139Z,7.70
2017-11-25T00:12:42.866Z,7.70
2017-11-25T00:15:14.991Z,7.80
2017-11-25T00:17:41.865Z,7.70
2017-11-25T00:20:10.152Z,7.50
2017-11-25T00:22:40.439Z,7.70
2017-11-25T00:25:13.855Z,7.70
2017-11-25T00:27:42.739Z,7.80
2017-11-25T00:30:15.633Z,7.80
2017-11-25T00:32:42.078Z,7.70
2017-11-25T00:35:12.716Z,7.70
2017-11-25T00:37:42.492Z,7.80
2017-11-25T00:40:18.078Z,7.90
2017-11-25T00:42:50.592Z,7.80
2017-11-25T00:45:21.764Z,7.70
2017-11-25T00:50:54.669Z,7.80
2017-11-25T00:53:31.383Z,7.70
2017-11-25T00:58:37.549Z,7.90
2017-11-25T01:01:03.934Z,7.90
2017-11-25T01:03:30.807Z,7.90
2017-11-25T01:05:56.940Z,7.90
2017-11-25T01:08:23.082Z,7.80
2017-11-25T01:10:49.208Z,8.00
2017-11-25T01:13:15.340Z,8.00
2017-11-25T01:15:41.431Z,7.90
2017-11-25T01:18:07.635Z,8.00
2017-11-25T01:20:33.854Z,8.10
2017-11-25T01:23:00.693Z,8.10
2017-11-25T01:25:26.836Z,8.00
2017-11-25T01:27:53.100Z,8.10
2017-11-25T01:30:19.249Z,8.00
2017-11-25T01:32:45.433Z,8.10
2017-11-25T01:35:11.598Z,7.90
2017-11-25T01:37:37.749Z,7.90
2017-11-25T01:40:03.894Z,7.80
2017-11-25T01:42:30.029Z,7.80
2017-11-25T01:44:56.180Z,7.90
2017-11-25T01:47:22.321Z,7.70
2017-11-25T01:49:49.213Z,8.00
2017-11-25T01:52:15.393Z,8.00
2017-11-25T01:54:41.550Z,7.70
2017-11-25T01:57:07.759Z,7.60
2017-11-25T01:59:33.973Z,7.80
2017-11-25T02:02:00.872Z,7.60
2017-11-25T02:04:26.991Z,7.60
2017-11-25T02:06:53.119Z,7.50
2017-11-25T02:09:19.986Z,7.40
2017-11-25T02:11:46.107Z,7.40
2017-11-25T02:14:12.980Z,7.50
2017-11-25T02:16:39.114Z,7.50
2017-11-25T02:19:05.279Z,7.40
2017-11-25T02:21:31.497Z,7.40
2017-11-25T02:23:57.678Z,7.30
2017-11-25T02:26:23.822Z,7.40
2017-11-25T02:28:49.980Z,7.30
2017-11-25T02:31:16.883Z,7.20
2017-11-25T02:33:43.173Z,7.20
2017-11-25T02:36:09.322Z,7.00
2017-11-25T02:38:36.203Z,6.80
2017-11-25T02:41:03.840Z,6.80
2017-11-25T02:43:31.454Z,6.70
2017-11-25T02:45:57.635Z,6.70
2017-11-25T02:48:23.810Z,6.60
2017-11-25T02:51:09.735Z,6.60
2017-11-25T02:53:40.687Z,6.50
2017-11-25T02:56:06.865Z,6.40
2017-11-25T02:58:33.694Z,6.40
2017-11-25T03:00:59.853Z,6.30
2017-11-25T03:03:26.030Z,6.30
2017-11-25T03:05:52.151Z,6.60
2017-11-25T03:08:18.309Z,6.40
2017-11-25T03:10:45.185Z,6.40
2017-11-25T03:13:11.346Z,6.40
2017-11-25T03:15:37.509Z,6.50
2017-11-25T03:18:03.733Z,6.30
2017-11-25T03:20:29.933Z,6.70
2017-11-25T03:22:56.988Z,6.30
2017-11-25T03:25:23.110Z,6.30
2017-11-25T03:27:49.227Z,6.40
2017-11-25T03:30:15.391Z,6.40
2017-11-25T03:32:42.387Z,6.60
2017-11-25T03:35:09.347Z,6.60
2017-11-25T03:37:35.481Z,6.50
2017-11-25T03:40:02.374Z,6.60
2017-11-25T03:42:28.531Z,6.50
2017-11-25T03:44:54.697Z,6.50
2017-11-25T03:47:21.718Z,6.30
2017-11-25T03:49:47.844Z,6.30
2017-11-25T03:52:14.005Z,6.40
2017-11-25T03:54:40.144Z,6.20
2017-11-25T03:57:06.312Z,6.10
2017-11-25T03:59:36.327Z,5.90
2017-11-25T04:02:03.213Z,5.80
2017-11-25T04:04:30.117Z,6.00
2017-11-25T04:06:56.262Z,5.80
2017-11-25T04:09:22.383Z,5.90
2017-11-25T04:11:48.549Z,5.80
2017-11-25T04:14:14.730Z,5.90
2017-11-25T04:16:40.848Z,5.90
2017-11-25T04:19:07.945Z,5.80
2017-11-25T04:21:34.070Z,5.80
2017-11-25T04:24:00.240Z,5.70
2017-11-25T04:26:27.133Z,5.50
2017-11-25T04:28:53.259Z,5.50
2017-11-25T04:31:19.385Z,5.40
2017-11-25T04:33:45.519Z,5.40
2017-11-25T04:36:12.414Z,5.30
2017-11-25T04:38:40.635Z,5.40
2017-11-25T04:41:06.837Z,5.30
2017-11-25T04:43:33.722Z,5.40
2017-11-25T04:46:00.621Z,5.40
2017-11-25T04:48:26.843Z,5.40
2017-11-25T04:50:53.031Z,5.40
2017-11-25T04:53:20.010Z,5.40
2017-11-25T04:55:46.212Z,5.30
2017-11-25T04:58:12.370Z,5.40
2017-11-25T05:00:39.252Z,5.50
2017-11-25T05:03:05.475Z,5.40
2017-11-25T05:05:31.710Z,5.60
2017-11-25T05:07:58.633Z,5.70
2017-11-25T05:10:24.773Z,5.70
2017-11-25T05:12:50.921Z,5.70
2017-11-25T05:15:17.830Z,5.60
2017-11-25T05:17:43.969Z,5.60
2017-11-25T05:20:10.194Z,5.90
2017-11-25T05:22:36.485Z,5.70
2017-11-25T05:25:02.652Z,5.70
2017-11-25T05:27:29.516Z,5.80
2017-11-25T05:29:56.370Z,5.90
2017-11-25T05:32:23.288Z,5.90
2017-11-25T05:34:49.444Z,6.00
2017-11-25T05:37:15.556Z,5.80
2017-11-25T05:39:41.737Z,5.80
2017-11-25T05:42:08.022Z,5.80
2017-11-25T05:44:34.180Z,5.80
2017-11-25T05:47:00.313Z,5.80
2017-11-25T05:49:27.845Z,5.80
2017-11-25T05:51:54.033Z,5.80
2017-11-25T05:54:20.181Z,5.80
2017-11-25T05:56:46.305Z,5.80
2017-11-25T05:59:12.415Z,5.80
2017-11-25T06:01:38.579Z,5.90
2017-11-25T06:04:04.707Z,5.80
2017-11-25T06:06:30.813Z,5.90
2017-11-25T06:08:57.026Z,5.90
2017-11-25T06:11:23.926Z,5.80
2017-11-25T06:13:50.109Z,5.80
2017-11-25T06:16:16.237Z,5.80
2017-11-25T06:18:42.354Z,5.90
2017-11-25T06:21:08.505Z,6.10
2017-11-25T06:23:34.659Z,5.90
2017-11-25T06:26:01.598Z,6.00
2017-11-25T06:28:27.753Z,6.00
2017-11-25T06:30:53.901Z,6.00
2017-11-25T06:33:20.092Z,6.20
2017-11-25T06:35:46.229Z,6.00
2017-11-25T06:38:12.358Z,6.00
2017-11-25T06:40:38.528Z,6.10
2017-11-25T06:43:04.794Z,6.20
2017-11-25T06:45:30.972Z,6.10
2017-11-25T06:47:57.108Z,6.20
2017-11-25T06:50:23.234Z,6.10
2017-11-25T06:52:49.457Z,6.20
2017-11-25T06:55:15.594Z,6.00
2017-11-25T06:57:41.725Z,6.00
2017-11-25T07:00:07.945Z,5.90
2017-11-25T07:02:34.079Z,5.90
2017-11-25T07:05:00.246Z,6.00
2017-11-25T07:07:26.385Z,6.10
2017-11-25T07:09:52.613Z,6.00
2017-11-25T07:12:18.777Z,6.00
2017-11-25T07:14:44.972Z,6.10
2017-11-25T07:17:11.154Z,6.20
2017-11-25T07:19:37.336Z,6.20
2017-11-25T07:22:03.505Z,6.20
2017-11-25T07:24:29.629Z,6.20
2017-11-25T07:26:55.775Z,6.10
2017-11-25T07:29:21.924Z,6.00
2017-11-25T07:31:48.063Z,6.20
2017-11-25T07:34:16.218Z,6.20
2017-11-25T07:36:42.367Z,6.20
2017-11-25T07:39:08.654Z,6.30
2017-11-25T07:41:35.564Z,6.10
2017-11-25T07:44:02.126Z,6.10
2017-11-25T07:46:28.264Z,6.20
2017-11-25T07:49:12.483Z,6.10
2017-11-25T07:51:42.684Z,6.20
2017-11-25T07:54:09.061Z,6.40
2017-11-25T07:56:36.134Z,6.20
2017-11-25T07:59:02.527Z,6.20
2017-11-25T08:01:29.319Z,6.30
2017-11-25T08:03:55.726Z,6.30
2017-11-25T08:06:22.093Z,6.20
2017-11-25T08:08:48.428Z,6.20
2017-11-25T08:11:14.805Z,6.20
2017-11-25T08:13:41.332Z,6.40
2017-11-25T08:16:07.709Z,6.30
2017-11-25T08:18:34.945Z,6.40
2017-11-25T08:21:01.312Z,6.40
2017-11-25T08:23:27.675Z,6.30
2017-11-25T08:25:56.203Z,6.20
2017-11-25T08:28:22.565Z,6.40
2017-11-25T08:30:52.674Z,6.70
2017-11-25T08:33:19.218Z,6.60
2017-11-25T08:35:45.679Z,6.60
2017-11-25T08:38:12.102Z,6.50
2017-11-25T08:40:38.439Z,6.70
2017-11-25T08:43:05.287Z,6.60
2017-11-25T08:45:31.675Z,6.60
2017-11-25T08:47:58.030Z,6.40
2017-11-25T08:50:24.425Z,6.50
2017-11-25T08:52:50.798Z,6.60
2017-11-25T08:55:17.185Z,6.70
2017-11-25T08:57:43.597Z,6.70
2017-11-25T09:00:10.034Z,6.50
2017-11-25T09:02:36.405Z,6.70
2017-11-25T09:05:02.813Z,7.10
2017-11-25T09:07:29.228Z,6.60
2017-11-25T09:09:55.681Z,6.60
2017-11-25T09:12:22.039Z,6.50
2017-11-25T09:14:48.439Z,6.60
2017-11-25T09:17:14.778Z,6.50
2017-11-25T09:19:41.146Z,6.60
2017-11-25T09:22:08.257Z,6.40
2017-11-25T09:24:35.405Z,6.40
2017-11-25T09:27:01.770Z,6.40
2017-11-25T09:29:28.358Z,6.40
2017-11-25T09:31:54.801Z,6.50
2017-11-25T09:34:21.168Z,6.50
2017-11-25T09:36:47.616Z,6.40
2017-11-25T09:39:14.013Z,6.70
2017-11-25T09:41:40.436Z,6.90
2017-11-25T09:44:06.823Z,6.80
2017-11-25T09:46:33.186Z,6.90
2017-11-25T09:49:00.046Z,6.60
2017-11-25T09:51:26.523Z,6.80
2017-11-25T09:53:52.912Z,6.80
2017-11-25T09:56:19.300Z,6.70
2017-11-25T09:58:45.769Z,6.60
2017-11-25T10:01:12.925Z,6.70
2017-11-25T10:03:39.287Z,6.70
2017-11-25T10:06:05.781Z,6.70
2017-11-25T10:08:32.137Z,6.50
2017-11-25T10:10:58.476Z,6.30
2017-11-25T10:13:25.653Z,6.50
2017-11-25T10:15:52.018Z,6.60
2017-11-25T10:18:18.465Z,6.50
2017-11-25T10:20:44.909Z,6.40
2017-11-25T10:23:11.347Z,6.30
2017-11-25T10:25:37.726Z,6.40
2017-11-25T10:28:04.192Z,6.40
2017-11-25T10:30:30.529Z,6.30
2017-11-25T10:32:56.857Z,6.30
2017-11-25T10:35:23.550Z,6.70
2017-11-25T10:37:50.001Z,6.10
2017-11-25T10:40:17.449Z,6.70
2017-11-25T10:42:43.773Z,6.90
2017-11-25T10:45:10.347Z,6.80
2017-11-25T10:47:36.694Z,6.80
2017-11-25T10:50:03.790Z,6.70
2017-11-25T10:52:30.127Z,6.70
2017-11-25T10:54:56.518Z,6.80
2017-11-25T10:57:22.926Z,6.80
2017-11-25T10:59:49.331Z,6.70
2017-11-25T11:02:15.656Z,6.80
2017-11-25T11:04:41.956Z,6.60
2017-11-25T11:07:08.293Z,6.90
2017-11-25T11:09:34.853Z,7.00
2017-11-25T11:12:01.233Z,6.70
2017-11-25T11:14:27.589Z,6.80
2017-11-25T11:16:53.930Z,6.90
2017-11-25T11:19:20.328Z,6.70
2017-11-25T11:21:46.955Z,6.60
2017-11-25T11:24:13.322Z,6.60
2017-11-25T11:26:40.436Z,6.60
2017-11-25T11:29:06.785Z,6.70
2017-11-25T11:31:33.930Z,6.80
2017-11-25T11:34:01.017Z,6.70
2017-11-25T11:36:28.064Z,6.90
2017-11-25T11:38:57.935Z,6.90
2017-11-25T11:41:24.293Z,6.90
2017-11-25T11:43:51.386Z,7.00
2017-11-25T11:46:17.770Z,7.00
2017-11-25T11:48:44.104Z,7.00
2017-11-25T11:51:11.774Z,6.90
2017-11-25T11:53:38.119Z,7.10
2017-11-25T11:56:04.458Z,6.90
2017-11-25T11:58:30.796Z,7.00
2017-11-25T12:00:57.169Z,6.80
2017-11-25T12:03:23.524Z,6.60
2017-11-25T12:05:49.864Z,6.80
2017-11-25T12:08:16.320Z,6.80
2017-11-25T12:10:42.674Z,6.90
2017-11-25T12:13:09.530Z,6.80
2017-11-25T12:15:35.873Z,6.90
2017-11-25T12:18:02.219Z,7.00
2017-11-25T12:20:29.556Z,7.10
2017-11-25T12:22:59.757Z,7.10
2017-11-25T12:25:26.931Z,7.00
2017-11-25T12:27:54.098Z,7.00
2017-11-25T12:30:20.457Z,7.00
2017-11-25T12:32:52.794Z,7.10
2017-11-25T12:35:19.179Z,7.10
2017-11-25T12:37:49.310Z,7.50
2017-11-25T12:40:15.715Z,7.20
2017-11-25T12:42:42.773Z,7.20
2017-11-25T12:45:09.220Z,7.20
2017-11-25T12:47:36.547Z,7.20
2017-11-25T12:50:02.953Z,7.20
2017-11-25T12:52:29.295Z,7.30
2017-11-25T12:54:55.615Z,7.20
2017-11-25T12:57:22.061Z,7.30
2017-11-25T12:59:48.387Z,7.40
2017-11-25T13:02:14.734Z,7.20
2017-11-25T13:04:41.150Z,7.20
2017-11-25T13:07:07.538Z,7.20
2017-11-25T13:09:34.006Z,7.30
2017-11-25T13:12:01.082Z,7.50
2017-11-25T13:14:27.384Z,7.60
2017-11-25T13:16:53.718Z,7.50
2017-11-25T13:19:20.049Z,7.70
2017-11-25T13:21:47.152Z,7.50
2017-11-25T13:24:13.538Z,7.70
2017-11-25T13:26:39.859Z,7.50
2017-11-25T13:29:06.302Z,7.60
2017-11-25T13:31:35.779Z,7.70
2017-11-25T13:34:02.086Z,7.70
2017-11-25T13:36:34.517Z,7.60
2017-11-25T13:39:03.150Z,7.30
2017-11-25T13:41:29.518Z,7.30
2017-11-25T13:44:12.925Z,7.60
2017-11-25T13:47:02.915Z,7.40
2017-11-25T13:49:32.409Z,7.40
2017-11-25T13:51:58.780Z,7.40
2017-11-25T13:56:57.201Z,7.40
2017-11-25T13:59:24.323Z,7.30
2017-11-25T14:01:51.477Z,7.20
2017-11-25T14:04:17.634Z,7.20
2017-11-25T14:06:43.815Z,7.40
2017-11-25T14:09:11.000Z,7.20
2017-11-25T14:11:37.416Z,7.20
2017-11-25T14:14:03.558Z,7.20
2017-11-25T14:16:29.917Z,7.30
2017-11-25T14:18:56.605Z,7.40
2017-11-25T14:21:22.963Z,7.60
2017-11-25T14:23:49.470Z,7.20
2017-11-25T14:26:15.856Z,7.20
2017-11-25T14:28:42.178Z,7.40
2017-11-25T14:31:08.538Z,7.20
2017-11-25T14:33:34.886Z,7.30
2017-11-25T14:36:02.069Z,7.40
2017-11-25T14:38:28.546Z,7.40
2017-11-25T14:40:54.753Z,7.30
2017-11-25T14:43:21.632Z,7.40
2017-11-25T14:45:47.790Z,7.50
2017-11-25T14:48:13.908Z,7.20
2017-11-25T14:50:40.060Z,7.20
2017-11-25T14:53:06.245Z,7.20
2017-11-25T14:55:32.597Z,7.60
2017-11-25T14:57:58.996Z,7.70
2017-11-25T15:00:25.573Z,7.60
2017-11-25T15:02:52.690Z,7.40
2017-11-25T15:05:19.141Z,7.40
2017-11-25T15:07:45.564Z,7.40
2017-11-25T15:10:11.869Z,7.40
2017-11-25T15:12:38.215Z,7.40
2017-11-25T15:15:04.571Z,7.50
2017-11-25T15:17:31.632Z,7.30
2017-11-25T15:19:58.042Z,7.30
2017-11-25T15:22:24.368Z,7.10
2017-11-25T15:24:50.689Z,7.20
2017-11-25T15:27:17.029Z,7.20
2017-11-25T15:29:43.418Z,7.10
2017-11-25T15:32:09.935Z,7.00
2017-11-25T15:34:36.406Z,7.00
2017-11-25T15:37:06.959Z,6.90
2017-11-25T15:39:33.140Z,7.00
2017-11-25T15:41:59.327Z,7.10
2017-11-25T15:44:25.477Z,7.20
2017-11-25T15:46:51.672Z,7.10
2017-11-25T15:49:17.804Z,6.80
2017-11-25T15:51:44.678Z,6.80
2017-11-25T15:54:10.829Z,6.80
2017-11-25T15:56:37.027Z,7.00
2017-11-25T15:59:04.055Z,6.70
2017-11-25T16:01:30.182Z,6.70
2017-11-25T16:03:56.334Z,6.70
2017-11-25T16:06:22.526Z,6.60
2017-11-25T16:08:48.658Z,6.80
2017-11-25T16:11:15.616Z,6.60
2017-11-25T16:13:42.559Z,6.70
2017-11-25T16:16:08.684Z,6.70
2017-11-25T16:18:36.442Z,6.70
2017-11-25T16:21:02.574Z,6.70
2017-11-25T16:23:28.742Z,6.70
2017-11-25T16:25:55.016Z,6.60
2017-11-25T16:28:21.210Z,6.40
2017-11-25T16:30:47.344Z,6.50
2017-11-25T16:33:13.539Z,6.50
2017-11-25T16:35:40.973Z,6.30
2017-11-25T16:38:07.864Z,6.40
2017-11-25T16:40:34.044Z,6.40
2017-11-25T16:43:00.211Z,6.30
2017-11-25T16:45:26.434Z,6.30
2017-11-25T16:47:53.302Z,6.50
2017-11-25T16:50:26.221Z,6.30
2017-11-25T16:52:52.341Z,6.30
2017-11-25T16:55:18.448Z,6.40
2017-11-25T16:57:44.590Z,6.30
2017-11-25T17:00:10.785Z,6.30
2017-11-25T17:02:36.960Z,6.70
2017-11-25T17:05:03.117Z,6.50
2017-11-25T17:07:32.368Z,6.30
2017-11-25T17:09:59.236Z,6.20
2017-11-25T17:12:25.359Z,6.20
2017-11-25T17:14:52.297Z,6.30
2017-11-25T17:17:19.178Z,6.30
2017-11-25T17:19:45.275Z,6.20
2017-11-25T17:22:11.390Z,6.30
2017-11-25T17:24:39.239Z,6.20
2017-11-25T17:27:07.098Z,6.30
2017-11-25T17:29:33.242Z,6.20
2017-11-25T17:32:00.148Z,6.30
2017-11-25T17:34:26.247Z,6.30
2017-11-25T17:36:53.126Z,6.40
2017-11-25T17:39:19.250Z,6.40
2017-11-25T17:41:45.361Z,6.30
2017-11-25T17:44:11.475Z,6.40
2017-11-25T17:46:39.657Z,6.40
2017-11-25T17:49:05.785Z,6.30
2017-11-25T17:51:31.974Z,6.30
2017-11-25T17:53:58.110Z,6.20
2017-11-25T17:56:24.369Z,6.20
2017-11-25T17:58:50.513Z,6.10
2017-11-25T18:01:16.675Z,6.00
2017-11-25T18:03:45.785Z,6.00
2017-11-25T18:06:11.896Z,6.00
2017-11-25T18:08:38.038Z,6.00
2017-11-25T18:11:04.161Z,5.90
2017-11-25T18:13:30.282Z,5.90
2017-11-25T18:15:57.137Z,6.10
2017-11-25T18:18:23.303Z,6.10
2017-11-25T18:20:57.624Z,6.10
2017-11-25T18:23:23.738Z,6.10
2017-11-25T18:25:49.873Z,6.10
2017-11-25T18:28:16.746Z,6.20
2017-11-25T18:30:42.850Z,6.20
2017-11-25T18:33:08.969Z,6.30
2017-11-25T18:35:35.085Z,6.20
2017-11-25T18:38:01.280Z,6.10
2017-11-25T18:40:30.910Z,6.20
2017-11-25T18:42:57.134Z,6.20
2017-11-25T18:45:23.294Z,6.10
2017-11-25T18:47:49.446Z,6.00
2017-11-25T18:50:15.567Z,5.90
2017-11-25T18:52:41.713Z,6.20
2017-11-25T18:55:07.842Z,5.80
2017-11-25T18:57:34.002Z,5.80
2017-11-25T19:00:04.777Z,5.70
2017-11-25T19:02:30.933Z,5.70
2017-11-25T19:04:57.165Z,5.70
2017-11-25T19:07:23.317Z,5.70
2017-11-25T19:09:49.502Z,5.60
2017-11-25T19:12:15.651Z,5.60
2017-11-25T19:14:42.538Z,5.60
2017-11-25T19:17:11.097Z,5.50
2017-11-25T19:19:37.247Z,5.50
2017-11-25T19:22:04.121Z,5.40
2017-11-25T19:24:30.293Z,5.40
2017-11-25T19:26:56.434Z,5.30
2017-11-25T19:29:23.319Z,5.30
2017-11-25T19:31:49.440Z,5.30
2017-11-25T19:34:18.235Z,5.30
2017-11-25T19:36:45.363Z,5.30
2017-11-25T19:39:12.214Z,5.20
2017-11-25T19:41:38.332Z,5.10
2017-11-25T19:44:04.504Z,5.20
2017-11-25T19:46:30.602Z,5.20
2017-11-25T19:49:02.919Z,5.30
2017-11-25T19:51:29.771Z,5.20
2017-11-25T19:53:56.665Z,5.10
2017-11-25T19:56:22.758Z,5.10
2017-11-25T19:58:48.953Z,5.20
2017-11-25T20:01:15.810Z,5.00
2017-11-25T20:03:41.930Z,5.00
2017-11-25T20:06:08.118Z,5.50
2017-11-25T20:08:38.148Z,5.10
2017-11-25T20:11:04.339Z,5.00
2017-11-25T20:13:31.256Z,4.90
2017-11-25T20:15:57.374Z,4.70
2017-11-25T20:18:23.493Z,4.80
2017-11-25T20:20:49.724Z,4.80
2017-11-25T20:23:15.829Z,4.90
2017-11-25T20:25:42.060Z,4.80
2017-11-25T20:28:09.325Z,4.70
2017-11-25T20:30:35.467Z,4.70
2017-11-25T20:33:01.597Z,4.80
2017-11-25T20:35:28.477Z,4.80
2017-11-25T20:37:55.341Z,4.70
2017-11-25T20:40:21.603Z,4.70
2017-11-25T20:42:47.774Z,4.80
2017-11-25T20:45:13.906Z,4.80
2017-11-25T20:47:44.457Z,4.80
2017-11-25T20:50:10.814Z,4.80
2017-11-25T20:52:36.945Z,4.80
2017-11-25T20:55:03.066Z,4.90
2017-11-25T20:57:29.245Z,5.10
2017-11-25T20:59:55.363Z,4.80
2017-11-25T21:02:22.222Z,4.70
2017-11-25T21:04:56.016Z,4.80
2017-11-25T21:07:22.240Z,4.80
2017-11-25T21:09:48.390Z,4.80
2017-11-25T21:12:14.599Z,4.80
2017-11-25T21:14:40.728Z,4.70
2017-11-25T21:17:06.870Z,4.70
2017-11-25T21:19:32.986Z,4.70
2017-11-25T21:21:59.122Z,4.70
2017-11-25T21:24:32.006Z,4.70
2017-11-25T21:26:58.163Z,4.80
2017-11-25T21:29:24.294Z,4.90
2017-11-25T21:31:50.431Z,4.60
2017-11-25T21:34:16.550Z,4.60
2017-11-25T21:36:42.728Z,4.70
2017-11-25T21:39:08.921Z,4.70
2017-11-25T21:41:35.066Z,4.70
2017-11-25T21:44:01.481Z,4.70
2017-11-25T21:46:27.616Z,4.60
2017-11-25T21:48:53.867Z,4.80
2017-11-25T21:51:20.180Z,4.60
2017-11-25T21:53:46.317Z,4.60
2017-11-25T21:56:13.361Z,4.50
2017-11-25T21:58:39.497Z,4.50
2017-11-25T22:01:05.616Z,4.50
2017-11-25T22:03:32.114Z,4.50
2017-11-25T22:05:58.347Z,4.50
2017-11-25T22:08:25.234Z,4.50
2017-11-25T22:10:51.344Z,4.50
2017-11-25T22:13:17.511Z,4.50
2017-11-25T22:15:43.965Z,4.50
2017-11-25T22:18:10.093Z,4.70
2017-11-25T22:20:37.107Z,4.40
2017-11-25T22:23:04.010Z,4.30
2017-11-25T22:25:30.277Z,4.30
2017-11-25T22:27:56.475Z,4.50
2017-11-25T22:30:23.817Z,4.50
2017-11-25T22:32:50.025Z,4.50
2017-11-25T22:35:16.207Z,4.50
2017-11-25T22:37:42.355Z,4.50
2017-11-25T22:40:08.494Z,4.50
2017-11-25T22:42:34.623Z,4.50
2017-11-25T22:45:01.512Z,4.30
2017-11-25T22:47:27.662Z,4.30
2017-11-25T22:49:53.797Z,4.40
2017-11-25T22:52:19.992Z,4.40
2017-11-25T22:54:47.165Z,4.40
2017-11-25T22:57:14.037Z,4.40
2017-11-25T22:59:40.186Z,4.70
2017-11-25T23:02:09.770Z,4.30
2017-11-25T23:04:36.697Z,4.40
2017-11-25T23:07:02.814Z,4.30
2017-11-25T23:09:30.857Z,4.50
2017-11-25T23:11:56.973Z,4.50
2017-11-25T23:14:24.199Z,4.70
2017-11-25T23:16:50.371Z,4.60
2017-11-25T23:19:17.238Z,4.60
2017-11-25T23:21:45.241Z,4.50
2017-11-25T23:24:11.478Z,4.50
2017-11-25T23:26:37.672Z,4.80
2017-11-25T23:29:03.918Z,4.70
2017-11-25T23:31:30.359Z,4.60
2017-11-25T23:33:56.711Z,4.50
2017-11-25T23:36:22.912Z,4.60
2017-11-25T23:38:49.893Z,4.50
2017-11-25T23:41:16.099Z,4.50
2017-11-25T23:43:42.421Z,4.60
2017-11-25T23:46:08.629Z,4.70
2017-11-25T23:48:34.826Z,4.70
2017-11-25T23:51:01.075Z,5.00
2017-11-25T23:53:29.491Z,4.80
2017-11-25T23:55:55.642Z,4.80
2017-11-25T23:58:21.790Z,4.70
